sensor_id;sensor_type;location;lat;lon;timestamp;P1;durP1;ratioP1;P2;durP2;ratioP2
19059;SDS011;9663;48.996;8.334;2023-07-24T00:00:31;5.95;;;2.85;;
19059;SDS011;9663;48.996;8.334;2023-07-24T00:02:59;5.43;;;2.63;;
19059;SDS011;9663;48.996;8.334;2023-07-24T00:05:24;6.53;;;3.30;;
19059;SDS011;9663;48.996;8.334;2023-07-24T00:07:50;5.03;;;2.50;;
19059;SDS011;9663;48.996;8.334;2023-07-24T00:10:16;6.15;;;3.05;;
19059;SDS011;9663;48.996;8.334;2023-07-24T00:12:41;5.57;;;2.88;;
19059;SDS011;9663;48.996;8.334;2023-07-24T00:15:07;6.30;;;3.13;;
19059;SDS011;9663;48.996;8.334;2023-07-24T00:17:33;5.38;;;2.78;;
19059;SDS011;9663;48.996;8.334;2023-07-24T00:19:59;5.55;;;2.67;;
19059;SDS011;9663;48.996;8.334;2023-07-24T00:22:24;6.20;;;3.00;;
19059;SDS011;9663;48.996;8.334;2023-07-24T00:24:50;6.05;;;2.80;;
19059;SDS011;9663;48.996;8.334;2023-07-24T00:27:15;7.90;;;2.58;;
19059;SDS011;9663;48.996;8.334;2023-07-24T00:29:41;5.60;;;2.67;;
19059;SDS011;9663;48.996;8.334;2023-07-24T00:32:07;6.32;;;2.92;;
19059;SDS011;9663;48.996;8.334;2023-07-24T00:34:33;5.90;;;2.85;;
19059;SDS011;9663;48.996;8.334;2023-07-24T00:36:59;5.88;;;3.03;;
19059;SDS011;9663;48.996;8.334;2023-07-24T00:39:24;5.93;;;3.13;;
19059;SDS011;9663;48.996;8.334;2023-07-24T00:41:53;5.85;;;2.60;;
19059;SDS011;9663;48.996;8.334;2023-07-24T00:44:19;6.28;;;3.13;;
19059;SDS011;9663;48.996;8.334;2023-07-24T00:46:45;5.60;;;2.95;;
19059;SDS011;9663;48.996;8.334;2023-07-24T00:49:11;5.72;;;2.97;;
19059;SDS011;9663;48.996;8.334;2023-07-24T00:51:37;7.45;;;2.75;;
19059;SDS011;9663;48.996;8.334;2023-07-24T00:54:03;5.43;;;2.72;;
19059;SDS011;9663;48.996;8.334;2023-07-24T00:56:31;6.10;;;2.85;;
19059;SDS011;9663;48.996;8.334;2023-07-24T00:58:59;6.82;;;2.75;;
19059;SDS011;9663;48.996;8.334;2023-07-24T01:01:26;5.32;;;2.75;;
19059;SDS011;9663;48.996;8.334;2023-07-24T01:03:52;5.85;;;2.88;;
19059;SDS011;9663;48.996;8.334;2023-07-24T01:06:18;6.15;;;2.90;;
19059;SDS011;9663;48.996;8.334;2023-07-24T01:08:44;5.63;;;3.17;;
19059;SDS011;9663;48.996;8.334;2023-07-24T01:11:12;5.07;;;2.70;;
19059;SDS011;9663;48.996;8.334;2023-07-24T01:17:06;6.60;;;2.80;;
19059;SDS011;9663;48.996;8.334;2023-07-24T01:19:52;5.65;;;2.67;;
19059;SDS011;9663;48.996;8.334;2023-07-24T01:25:32;6.05;;;3.10;;
19059;SDS011;9663;48.996;8.334;2023-07-24T01:28:00;5.38;;;2.70;;
19059;SDS011;9663;48.996;8.334;2023-07-24T01:30:26;5.50;;;2.80;;
19059;SDS011;9663;48.996;8.334;2023-07-24T01:32:52;5.57;;;2.63;;
19059;SDS011;9663;48.996;8.334;2023-07-24T01:35:17;5.13;;;2.60;;
19059;SDS011;9663;48.996;8.334;2023-07-24T01:37:43;5.88;;;2.53;;
19059;SDS011;9663;48.996;8.334;2023-07-24T01:40:11;5.30;;;2.70;;
19059;SDS011;9663;48.996;8.334;2023-07-24T01:42:38;5.63;;;2.70;;
19059;SDS011;9663;48.996;8.334;2023-07-24T01:45:05;6.13;;;3.10;;
19059;SDS011;9663;48.996;8.334;2023-07-24T01:47:31;4.78;;;2.38;;
19059;SDS011;9663;48.996;8.334;2023-07-24T01:49:57;5.32;;;2.88;;
19059;SDS011;9663;48.996;8.334;2023-07-24T01:52:23;6.75;;;2.97;;
19059;SDS011;9663;48.996;8.334;2023-07-24T01:54:49;4.97;;;2.60;;
19059;SDS011;9663;48.996;8.334;2023-07-24T01:57:15;5.68;;;2.45;;
19059;SDS011;9663;48.996;8.334;2023-07-24T01:59:40;5.55;;;2.63;;
19059;SDS011;9663;48.996;8.334;2023-07-24T02:02:06;5.82;;;3.00;;
19059;SDS011;9663;48.996;8.334;2023-07-24T02:04:32;5.15;;;2.58;;
19059;SDS011;9663;48.996;8.334;2023-07-24T02:06:57;5.35;;;2.70;;
19059;SDS011;9663;48.996;8.334;2023-07-24T02:09:23;5.22;;;2.42;;
19059;SDS011;9663;48.996;8.334;2023-07-24T02:11:49;6.03;;;3.10;;
19059;SDS011;9663;48.996;8.334;2023-07-24T02:14:14;6.57;;;2.63;;
19059;SDS011;9663;48.996;8.334;2023-07-24T02:16:43;5.88;;;2.90;;
19059;SDS011;9663;48.996;8.334;2023-07-24T02:19:08;6.03;;;2.90;;
19059;SDS011;9663;48.996;8.334;2023-07-24T02:21:34;5.50;;;2.88;;
19059;SDS011;9663;48.996;8.334;2023-07-24T02:24:00;5.60;;;2.90;;
19059;SDS011;9663;48.996;8.334;2023-07-24T02:26:26;5.45;;;2.90;;
19059;SDS011;9663;48.996;8.334;2023-07-24T02:28:51;5.82;;;2.88;;
19059;SDS011;9663;48.996;8.334;2023-07-24T02:31:18;5.15;;;2.63;;
19059;SDS011;9663;48.996;8.334;2023-07-24T02:33:44;5.70;;;2.92;;
19059;SDS011;9663;48.996;8.334;2023-07-24T02:36:10;5.72;;;2.65;;
19059;SDS011;9663;48.996;8.334;2023-07-24T02:38:35;5.55;;;2.75;;
19059;SDS011;9663;48.996;8.334;2023-07-24T02:41:02;5.10;;;2.58;;
19059;SDS011;9663;48.996;8.334;2023-07-24T02:43:27;5.38;;;2.67;;
19059;SDS011;9663;48.996;8.334;2023-07-24T02:45:53;6.10;;;3.00;;
19059;SDS011;9663;48.996;8.334;2023-07-24T02:48:18;6.30;;;2.72;;
19059;SDS011;9663;48.996;8.334;2023-07-24T02:50:46;4.55;;;2.42;;
19059;SDS011;9663;48.996;8.334;2023-07-24T02:53:13;5.55;;;2.72;;
19059;SDS011;9663;48.996;8.334;2023-07-24T02:55:41;5.22;;;2.63;;
19059;SDS011;9663;48.996;8.334;2023-07-24T02:58:08;5.63;;;2.90;;
19059;SDS011;9663;48.996;8.334;2023-07-24T03:00:35;5.75;;;3.00;;
19059;SDS011;9663;48.996;8.334;2023-07-24T03:03:01;6.03;;;3.00;;
19059;SDS011;9663;48.996;8.334;2023-07-24T03:05:26;5.57;;;2.92;;
19059;SDS011;9663;48.996;8.334;2023-07-24T03:07:52;6.32;;;3.33;;
19059;SDS011;9663;48.996;8.334;2023-07-24T03:10:17;5.65;;;2.75;;
19059;SDS011;9663;48.996;8.334;2023-07-24T03:12:43;5.93;;;2.75;;
19059;SDS011;9663;48.996;8.334;2023-07-24T03:15:09;5.65;;;2.80;;
19059;SDS011;9663;48.996;8.334;2023-07-24T03:17:35;5.57;;;2.97;;
19059;SDS011;9663;48.996;8.334;2023-07-24T03:20:07;6.30;;;3.10;;
19059;SDS011;9663;48.996;8.334;2023-07-24T03:22:35;6.28;;;3.30;;
19059;SDS011;9663;48.996;8.334;2023-07-24T03:25:01;5.05;;;2.80;;
19059;SDS011;9663;48.996;8.334;2023-07-24T03:27:27;5.63;;;2.92;;
19059;SDS011;9663;48.996;8.334;2023-07-24T03:29:52;5.57;;;2.80;;
19059;SDS011;9663;48.996;8.334;2023-07-24T03:32:18;5.95;;;2.80;;
19059;SDS011;9663;48.996;8.334;2023-07-24T03:34:43;6.70;;;2.90;;
19059;SDS011;9663;48.996;8.334;2023-07-24T03:37:09;5.25;;;2.72;;
19059;SDS011;9663;48.996;8.334;2023-07-24T03:39:35;6.13;;;3.15;;
19059;SDS011;9663;48.996;8.334;2023-07-24T03:42:01;5.80;;;3.10;;
19059;SDS011;9663;48.996;8.334;2023-07-24T03:44:27;5.35;;;2.88;;
19059;SDS011;9663;48.996;8.334;2023-07-24T03:46:52;5.75;;;3.10;;
19059;SDS011;9663;48.996;8.334;2023-07-24T03:49:18;5.80;;;3.10;;
19059;SDS011;9663;48.996;8.334;2023-07-24T03:51:43;5.10;;;2.88;;
19059;SDS011;9663;48.996;8.334;2023-07-24T03:54:09;5.95;;;3.05;;
19059;SDS011;9663;48.996;8.334;2023-07-24T03:56:35;5.63;;;2.83;;
19059;SDS011;9663;48.996;8.334;2023-07-24T03:59:00;5.13;;;2.78;;
19059;SDS011;9663;48.996;8.334;2023-07-24T04:01:26;5.35;;;2.75;;
19059;SDS011;9663;48.996;8.334;2023-07-24T04:03:52;5.75;;;2.88;;
19059;SDS011;9663;48.996;8.334;2023-07-24T04:06:18;5.03;;;2.75;;
19059;SDS011;9663;48.996;8.334;2023-07-24T04:08:43;4.93;;;2.58;;
19059;SDS011;9663;48.996;8.334;2023-07-24T04:11:09;5.65;;;3.08;;
19059;SDS011;9663;48.996;8.334;2023-07-24T04:13:34;6.00;;;3.17;;
19059;SDS011;9663;48.996;8.334;2023-07-24T04:16:00;5.90;;;3.10;;
19059;SDS011;9663;48.996;8.334;2023-07-24T04:18:26;6.32;;;2.80;;
19059;SDS011;9663;48.996;8.334;2023-07-24T04:20:51;6.43;;;3.50;;
19059;SDS011;9663;48.996;8.334;2023-07-24T04:23:17;5.35;;;2.88;;
19059;SDS011;9663;48.996;8.334;2023-07-24T04:25:42;6.50;;;3.05;;
19059;SDS011;9663;48.996;8.334;2023-07-24T04:28:08;5.53;;;3.28;;
19059;SDS011;9663;48.996;8.334;2023-07-24T04:30:34;5.95;;;3.05;;
19059;SDS011;9663;48.996;8.334;2023-07-24T04:32:59;6.38;;;3.08;;
19059;SDS011;9663;48.996;8.334;2023-07-24T04:35:26;6.07;;;3.50;;
19059;SDS011;9663;48.996;8.334;2023-07-24T04:37:52;6.70;;;3.50;;
19059;SDS011;9663;48.996;8.334;2023-07-24T04:40:17;5.75;;;3.20;;
19059;SDS011;9663;48.996;8.334;2023-07-24T04:42:43;6.30;;;3.28;;
19059;SDS011;9663;48.996;8.334;2023-07-24T04:45:09;5.50;;;2.60;;
19059;SDS011;9663;48.996;8.334;2023-07-24T04:47:35;7.07;;;3.03;;
19059;SDS011;9663;48.996;8.334;2023-07-24T04:50:02;6.10;;;3.45;;
19059;SDS011;9663;48.996;8.334;2023-07-24T04:52:28;5.72;;;3.28;;
19059;SDS011;9663;48.996;8.334;2023-07-24T04:54:53;5.70;;;2.95;;
19059;SDS011;9663;48.996;8.334;2023-07-24T04:57:19;6.20;;;2.97;;
19059;SDS011;9663;48.996;8.334;2023-07-24T04:59:44;5.80;;;3.05;;
19059;SDS011;9663;48.996;8.334;2023-07-24T05:02:10;5.88;;;2.90;;
19059;SDS011;9663;48.996;8.334;2023-07-24T05:04:36;6.10;;;3.15;;
19059;SDS011;9663;48.996;8.334;2023-07-24T05:07:01;6.93;;;3.20;;
19059;SDS011;9663;48.996;8.334;2023-07-24T05:09:27;5.68;;;3.03;;
19059;SDS011;9663;48.996;8.334;2023-07-24T05:11:53;4.72;;;2.38;;
19059;SDS011;9663;48.996;8.334;2023-07-24T05:14:18;5.35;;;2.97;;
19059;SDS011;9663;48.996;8.334;2023-07-24T05:16:44;6.18;;;3.45;;
19059;SDS011;9663;48.996;8.334;2023-07-24T05:19:10;6.43;;;3.22;;
19059;SDS011;9663;48.996;8.334;2023-07-24T05:21:35;5.70;;;2.90;;
19059;SDS011;9663;48.996;8.334;2023-07-24T05:24:01;5.45;;;2.88;;
19059;SDS011;9663;48.996;8.334;2023-07-24T05:26:27;6.47;;;3.10;;
19059;SDS011;9663;48.996;8.334;2023-07-24T05:28:52;5.90;;;3.10;;
19059;SDS011;9663;48.996;8.334;2023-07-24T05:31:18;5.45;;;2.78;;
19059;SDS011;9663;48.996;8.334;2023-07-24T05:33:44;5.47;;;2.92;;
19059;SDS011;9663;48.996;8.334;2023-07-24T05:36:09;6.13;;;3.22;;
19059;SDS011;9663;48.996;8.334;2023-07-24T05:38:35;7.00;;;3.20;;
19059;SDS011;9663;48.996;8.334;2023-07-24T05:41:01;6.35;;;2.88;;
19059;SDS011;9663;48.996;8.334;2023-07-24T05:43:28;5.38;;;3.13;;
19059;SDS011;9663;48.996;8.334;2023-07-24T05:45:56;6.50;;;2.83;;
19059;SDS011;9663;48.996;8.334;2023-07-24T05:48:23;6.93;;;3.58;;
19059;SDS011;9663;48.996;8.334;2023-07-24T05:50:50;5.50;;;2.97;;
19059;SDS011;9663;48.996;8.334;2023-07-24T05:53:16;5.40;;;2.83;;
19059;SDS011;9663;48.996;8.334;2023-07-24T05:55:42;5.75;;;2.88;;
19059;SDS011;9663;48.996;8.334;2023-07-24T05:58:08;5.80;;;3.30;;
19059;SDS011;9663;48.996;8.334;2023-07-24T06:00:35;6.22;;;3.30;;
19059;SDS011;9663;48.996;8.334;2023-07-24T06:03:01;5.22;;;2.88;;
19059;SDS011;9663;48.996;8.334;2023-07-24T06:05:28;5.93;;;3.25;;
19059;SDS011;9663;48.996;8.334;2023-07-24T06:07:53;6.18;;;3.25;;
19059;SDS011;9663;48.996;8.334;2023-07-24T06:10:19;5.82;;;3.10;;
19059;SDS011;9663;48.996;8.334;2023-07-24T06:12:45;6.35;;;3.25;;
19059;SDS011;9663;48.996;8.334;2023-07-24T06:15:11;6.35;;;3.25;;
19059;SDS011;9663;48.996;8.334;2023-07-24T06:17:36;6.05;;;3.17;;
19059;SDS011;9663;48.996;8.334;2023-07-24T06:20:02;7.28;;;3.85;;
19059;SDS011;9663;48.996;8.334;2023-07-24T06:22:28;6.75;;;3.50;;
19059;SDS011;9663;48.996;8.334;2023-07-24T06:24:53;6.20;;;3.30;;
19059;SDS011;9663;48.996;8.334;2023-07-24T06:27:19;5.97;;;2.90;;
19059;SDS011;9663;48.996;8.334;2023-07-24T06:29:45;6.30;;;3.50;;
19059;SDS011;9663;48.996;8.334;2023-07-24T06:32:10;6.00;;;3.13;;
19059;SDS011;9663;48.996;8.334;2023-07-24T06:34:36;7.15;;;3.72;;
19059;SDS011;9663;48.996;8.334;2023-07-24T06:37:02;6.07;;;3.28;;
19059;SDS011;9663;48.996;8.334;2023-07-24T06:39:27;5.47;;;3.10;;
19059;SDS011;9663;48.996;8.334;2023-07-24T06:41:53;6.57;;;3.88;;
19059;SDS011;9663;48.996;8.334;2023-07-24T06:44:20;6.65;;;3.67;;
19059;SDS011;9663;48.996;8.334;2023-07-24T06:46:46;6.03;;;3.53;;
19059;SDS011;9663;48.996;8.334;2023-07-24T06:49:12;6.45;;;3.13;;
19059;SDS011;9663;48.996;8.334;2023-07-24T06:51:38;6.05;;;3.53;;
19059;SDS011;9663;48.996;8.334;2023-07-24T06:54:04;6.88;;;3.60;;
19059;SDS011;9663;48.996;8.334;2023-07-24T06:56:30;6.80;;;3.78;;
19059;SDS011;9663;48.996;8.334;2023-07-24T06:58:57;6.63;;;3.40;;
19059;SDS011;9663;48.996;8.334;2023-07-24T07:01:23;6.10;;;3.40;;
19059;SDS011;9663;48.996;8.334;2023-07-24T07:03:49;6.45;;;3.55;;
19059;SDS011;9663;48.996;8.334;2023-07-24T07:06:14;6.80;;;3.28;;
19059;SDS011;9663;48.996;8.334;2023-07-24T07:08:40;6.25;;;3.40;;
19059;SDS011;9663;48.996;8.334;2023-07-24T07:11:06;7.20;;;3.83;;
19059;SDS011;9663;48.996;8.334;2023-07-24T07:13:32;7.10;;;3.53;;
19059;SDS011;9663;48.996;8.334;2023-07-24T07:15:57;6.85;;;3.65;;
19059;SDS011;9663;48.996;8.334;2023-07-24T07:18:23;6.57;;;3.63;;
19059;SDS011;9663;48.996;8.334;2023-07-24T07:20:49;5.85;;;3.25;;
19059;SDS011;9663;48.996;8.334;2023-07-24T07:23:18;6.47;;;3.53;;
19059;SDS011;9663;48.996;8.334;2023-07-24T07:25:44;6.90;;;3.55;;
19059;SDS011;9663;48.996;8.334;2023-07-24T07:28:11;6.43;;;3.45;;
19059;SDS011;9663;48.996;8.334;2023-07-24T07:30:40;7.68;;;4.18;;
19059;SDS011;9663;48.996;8.334;2023-07-24T07:33:06;7.15;;;4.00;;
19059;SDS011;9663;48.996;8.334;2023-07-24T07:35:34;6.35;;;3.25;;
19059;SDS011;9663;48.996;8.334;2023-07-24T07:38:05;5.90;;;3.20;;
19059;SDS011;9663;48.996;8.334;2023-07-24T07:40:31;7.47;;;3.70;;
19059;SDS011;9663;48.996;8.334;2023-07-24T07:42:56;7.38;;;3.25;;
19059;SDS011;9663;48.996;8.334;2023-07-24T07:45:23;6.35;;;3.40;;
19059;SDS011;9663;48.996;8.334;2023-07-24T07:47:49;9.60;;;3.45;;
19059;SDS011;9663;48.996;8.334;2023-07-24T07:50:18;6.95;;;3.50;;
19059;SDS011;9663;48.996;8.334;2023-07-24T07:52:43;6.38;;;3.63;;
19059;SDS011;9663;48.996;8.334;2023-07-24T07:55:09;7.03;;;3.50;;
19059;SDS011;9663;48.996;8.334;2023-07-24T07:57:36;5.90;;;3.40;;
19059;SDS011;9663;48.996;8.334;2023-07-24T08:00:03;7.07;;;3.88;;
19059;SDS011;9663;48.996;8.334;2023-07-24T08:02:33;6.57;;;3.80;;
19059;SDS011;9663;48.996;8.334;2023-07-24T08:04:59;6.15;;;3.30;;
19059;SDS011;9663;48.996;8.334;2023-07-24T08:07:25;6.22;;;3.50;;
19059;SDS011;9663;48.996;8.334;2023-07-24T08:09:50;6.95;;;3.53;;
19059;SDS011;9663;48.996;8.334;2023-07-24T08:12:16;6.22;;;3.33;;
19059;SDS011;9663;48.996;8.334;2023-07-24T08:14:42;6.85;;;4.00;;
19059;SDS011;9663;48.996;8.334;2023-07-24T08:17:08;6.40;;;3.53;;
19059;SDS011;9663;48.996;8.334;2023-07-24T08:19:33;7.10;;;3.60;;
19059;SDS011;9663;48.996;8.334;2023-07-24T08:21:59;6.85;;;3.28;;
19059;SDS011;9663;48.996;8.334;2023-07-24T08:24:25;6.65;;;3.67;;
19059;SDS011;9663;48.996;8.334;2023-07-24T08:26:50;7.13;;;3.65;;
19059;SDS011;9663;48.996;8.334;2023-07-24T08:29:16;7.95;;;3.22;;
19059;SDS011;9663;48.996;8.334;2023-07-24T08:31:42;6.38;;;3.20;;
19059;SDS011;9663;48.996;8.334;2023-07-24T08:34:07;7.45;;;3.03;;
19059;SDS011;9663;48.996;8.334;2023-07-24T08:36:33;6.75;;;3.30;;
19059;SDS011;9663;48.996;8.334;2023-07-24T08:38:59;7.28;;;3.67;;
19059;SDS011;9663;48.996;8.334;2023-07-24T08:41:24;6.22;;;3.20;;
19059;SDS011;9663;48.996;8.334;2023-07-24T08:43:50;5.45;;;3.15;;
19059;SDS011;9663;48.996;8.334;2023-07-24T08:46:17;5.97;;;3.50;;
19059;SDS011;9663;48.996;8.334;2023-07-24T08:48:44;8.07;;;5.17;;
19059;SDS011;9663;48.996;8.334;2023-07-24T08:51:10;7.80;;;4.68;;
19059;SDS011;9663;48.996;8.334;2023-07-24T08:53:39;7.13;;;3.72;;
19059;SDS011;9663;48.996;8.334;2023-07-24T08:56:07;5.88;;;3.40;;
19059;SDS011;9663;48.996;8.334;2023-07-24T08:58:35;6.88;;;3.42;;
19059;SDS011;9663;48.996;8.334;2023-07-24T09:01:02;5.57;;;3.13;;
19059;SDS011;9663;48.996;8.334;2023-07-24T09:03:32;7.50;;;3.08;;
19059;SDS011;9663;48.996;8.334;2023-07-24T09:06:02;5.25;;;2.83;;
19059;SDS011;9663;48.996;8.334;2023-07-24T09:08:33;5.35;;;3.15;;
19059;SDS011;9663;48.996;8.334;2023-07-24T09:11:05;5.65;;;3.22;;
19059;SDS011;9663;48.996;8.334;2023-07-24T09:13:33;5.57;;;3.00;;
19059;SDS011;9663;48.996;8.334;2023-07-24T09:16:02;7.07;;;3.58;;
19059;SDS011;9663;48.996;8.334;2023-07-24T09:18:38;6.03;;;3.20;;
19059;SDS011;9663;48.996;8.334;2023-07-24T09:21:06;6.63;;;3.80;;
19059;SDS011;9663;48.996;8.334;2023-07-24T09:23:32;6.00;;;3.05;;
19059;SDS011;9663;48.996;8.334;2023-07-24T09:25:58;6.03;;;3.03;;
19059;SDS011;9663;48.996;8.334;2023-07-24T09:28:23;6.47;;;3.30;;
19059;SDS011;9663;48.996;8.334;2023-07-24T09:30:56;6.57;;;3.72;;
19059;SDS011;9663;48.996;8.334;2023-07-24T09:33:38;5.55;;;3.03;;
19059;SDS011;9663;48.996;8.334;2023-07-24T09:36:06;6.72;;;3.08;;
19059;SDS011;9663;48.996;8.334;2023-07-24T09:38:34;5.22;;;2.85;;
19059;SDS011;9663;48.996;8.334;2023-07-24T09:41:04;5.53;;;3.00;;
19059;SDS011;9663;48.996;8.334;2023-07-24T09:43:31;4.80;;;2.85;;
19059;SDS011;9663;48.996;8.334;2023-07-24T09:45:58;5.85;;;2.88;;
19059;SDS011;9663;48.996;8.334;2023-07-24T09:48:25;5.30;;;2.92;;
19059;SDS011;9663;48.996;8.334;2023-07-24T09:50:56;6.10;;;3.20;;
19059;SDS011;9663;48.996;8.334;2023-07-24T09:53:37;6.07;;;3.15;;
19059;SDS011;9663;48.996;8.334;2023-07-24T09:56:11;6.03;;;3.25;;
19059;SDS011;9663;48.996;8.334;2023-07-24T09:58:39;6.28;;;3.40;;
19059;SDS011;9663;48.996;8.334;2023-07-24T10:01:08;5.85;;;3.00;;
19059;SDS011;9663;48.996;8.334;2023-07-24T10:03:37;6.53;;;3.65;;
19059;SDS011;9663;48.996;8.334;2023-07-24T10:06:07;5.38;;;2.90;;
19059;SDS011;9663;48.996;8.334;2023-07-24T10:08:35;5.40;;;2.97;;
19059;SDS011;9663;48.996;8.334;2023-07-24T10:11:01;5.80;;;3.08;;
19059;SDS011;9663;48.996;8.334;2023-07-24T10:13:27;5.85;;;3.08;;
19059;SDS011;9663;48.996;8.334;2023-07-24T10:15:54;5.40;;;3.05;;
19059;SDS011;9663;48.996;8.334;2023-07-24T10:18:28;6.18;;;3.03;;
19059;SDS011;9663;48.996;8.334;2023-07-24T10:21:07;5.40;;;2.88;;
19059;SDS011;9663;48.996;8.334;2023-07-24T10:23:34;5.40;;;2.95;;
19059;SDS011;9663;48.996;8.334;2023-07-24T10:26:03;5.85;;;3.25;;
19059;SDS011;9663;48.996;8.334;2023-07-24T10:28:31;5.88;;;2.97;;
19059;SDS011;9663;48.996;8.334;2023-07-24T10:31:23;6.13;;;3.17;;
19059;SDS011;9663;48.996;8.334;2023-07-24T10:33:51;4.93;;;2.60;;
19059;SDS011;9663;48.996;8.334;2023-07-24T10:36:18;5.30;;;2.80;;
19059;SDS011;9663;48.996;8.334;2023-07-24T10:38:51;6.60;;;3.00;;
19059;SDS011;9663;48.996;8.334;2023-07-24T10:41:19;7.00;;;2.92;;
19059;SDS011;9663;48.996;8.334;2023-07-24T10:43:49;5.45;;;2.78;;
19059;SDS011;9663;48.996;8.334;2023-07-24T10:46:18;5.38;;;2.67;;
19059;SDS011;9663;48.996;8.334;2023-07-24T10:48:49;6.13;;;3.10;;
19059;SDS011;9663;48.996;8.334;2023-07-24T10:51:16;5.00;;;2.70;;
19059;SDS011;9663;48.996;8.334;2023-07-24T10:53:46;5.30;;;3.10;;
19059;SDS011;9663;48.996;8.334;2023-07-24T10:56:14;5.30;;;2.47;;
19059;SDS011;9663;48.996;8.334;2023-07-24T10:58:42;5.50;;;2.70;;
19059;SDS011;9663;48.996;8.334;2023-07-24T11:01:08;5.55;;;2.90;;
19059;SDS011;9663;48.996;8.334;2023-07-24T11:03:37;5.10;;;2.85;;
19059;SDS011;9663;48.996;8.334;2023-07-24T11:06:10;5.13;;;2.90;;
19059;SDS011;9663;48.996;8.334;2023-07-24T11:08:56;5.85;;;2.80;;
19059;SDS011;9663;48.996;8.334;2023-07-24T11:11:31;5.47;;;2.80;;
19059;SDS011;9663;48.996;8.334;2023-07-24T11:13:59;4.80;;;2.47;;
19059;SDS011;9663;48.996;8.334;2023-07-24T11:16:26;5.68;;;2.95;;
19059;SDS011;9663;48.996;8.334;2023-07-24T11:18:52;5.18;;;2.63;;
19059;SDS011;9663;48.996;8.334;2023-07-24T11:21:19;7.28;;;3.20;;
19059;SDS011;9663;48.996;8.334;2023-07-24T11:23:48;5.18;;;2.70;;
19059;SDS011;9663;48.996;8.334;2023-07-24T11:26:20;5.90;;;3.10;;
19059;SDS011;9663;48.996;8.334;2023-07-24T11:28:49;5.20;;;2.72;;
19059;SDS011;9663;48.996;8.334;2023-07-24T11:31:16;5.03;;;2.72;;
19059;SDS011;9663;48.996;8.334;2023-07-24T11:33:44;7.22;;;3.22;;
19059;SDS011;9663;48.996;8.334;2023-07-24T11:36:12;5.45;;;2.92;;
19059;SDS011;9663;48.996;8.334;2023-07-24T11:38:39;5.68;;;2.83;;
19059;SDS011;9663;48.996;8.334;2023-07-24T11:41:05;5.15;;;3.05;;
19059;SDS011;9663;48.996;8.334;2023-07-24T11:43:33;5.00;;;3.00;;
19059;SDS011;9663;48.996;8.334;2023-07-24T11:45:59;5.43;;;3.08;;
19059;SDS011;9663;48.996;8.334;2023-07-24T11:48:25;5.47;;;2.90;;
19059;SDS011;9663;48.996;8.334;2023-07-24T11:50:54;6.43;;;3.05;;
19059;SDS011;9663;48.996;8.334;2023-07-24T11:53:25;5.72;;;3.22;;
19059;SDS011;9663;48.996;8.334;2023-07-24T11:55:56;6.40;;;3.40;;
19059;SDS011;9663;48.996;8.334;2023-07-24T11:58:30;6.45;;;3.47;;
19059;SDS011;9663;48.996;8.334;2023-07-24T12:04:37;6.10;;;3.00;;
19059;SDS011;9663;48.996;8.334;2023-07-24T12:07:09;5.45;;;2.97;;
19059;SDS011;9663;48.996;8.334;2023-07-24T12:09:35;6.30;;;3.17;;
19059;SDS011;9663;48.996;8.334;2023-07-24T12:12:00;6.32;;;3.58;;
19059;SDS011;9663;48.996;8.334;2023-07-24T12:14:32;5.35;;;2.95;;
19059;SDS011;9663;48.996;8.334;2023-07-24T12:17:01;5.18;;;2.90;;
19059;SDS011;9663;48.996;8.334;2023-07-24T12:19:28;4.90;;;2.65;;
19059;SDS011;9663;48.996;8.334;2023-07-24T12:21:54;5.32;;;3.00;;
19059;SDS011;9663;48.996;8.334;2023-07-24T12:24:21;6.50;;;3.03;;
19059;SDS011;9663;48.996;8.334;2023-07-24T12:26:47;5.75;;;2.75;;
19059;SDS011;9663;48.996;8.334;2023-07-24T12:29:13;5.45;;;2.95;;
19059;SDS011;9663;48.996;8.334;2023-07-24T12:31:38;5.80;;;3.28;;
19059;SDS011;9663;48.996;8.334;2023-07-24T12:34:04;7.10;;;2.90;;
19059;SDS011;9663;48.996;8.334;2023-07-24T12:36:30;5.10;;;2.83;;
19059;SDS011;9663;48.996;8.334;2023-07-24T12:38:55;4.65;;;2.53;;
19059;SDS011;9663;48.996;8.334;2023-07-24T12:41:21;4.97;;;2.60;;
19059;SDS011;9663;48.996;8.334;2023-07-24T12:43:47;5.75;;;3.20;;
19059;SDS011;9663;48.996;8.334;2023-07-24T12:46:12;4.93;;;2.55;;
19059;SDS011;9663;48.996;8.334;2023-07-24T12:48:38;4.78;;;2.45;;
19059;SDS011;9663;48.996;8.334;2023-07-24T12:51:04;4.90;;;2.83;;
19059;SDS011;9663;48.996;8.334;2023-07-24T12:53:29;4.82;;;2.72;;
19059;SDS011;9663;48.996;8.334;2023-07-24T12:55:55;5.15;;;2.90;;
19059;SDS011;9663;48.996;8.334;2023-07-24T12:58:21;5.47;;;3.03;;
19059;SDS011;9663;48.996;8.334;2023-07-24T13:00:46;6.00;;;2.97;;
19059;SDS011;9663;48.996;8.334;2023-07-24T13:03:12;5.10;;;2.70;;
19059;SDS011;9663;48.996;8.334;2023-07-24T13:05:38;5.28;;;2.67;;
19059;SDS011;9663;48.996;8.334;2023-07-24T13:08:04;5.13;;;2.60;;
19059;SDS011;9663;48.996;8.334;2023-07-24T13:10:29;5.07;;;2.75;;
19059;SDS011;9663;48.996;8.334;2023-07-24T13:12:55;4.97;;;2.80;;
19059;SDS011;9663;48.996;8.334;2023-07-24T13:15:21;4.93;;;2.70;;
19059;SDS011;9663;48.996;8.334;2023-07-24T13:17:47;4.40;;;2.53;;
19059;SDS011;9663;48.996;8.334;2023-07-24T13:20:14;4.82;;;2.80;;
19059;SDS011;9663;48.996;8.334;2023-07-24T13:22:39;5.28;;;2.80;;
19059;SDS011;9663;48.996;8.334;2023-07-24T13:25:08;4.43;;;2.50;;
19059;SDS011;9663;48.996;8.334;2023-07-24T13:27:33;4.72;;;2.50;;
19059;SDS011;9663;48.996;8.334;2023-07-24T13:29:59;4.82;;;2.35;;
19059;SDS011;9663;48.996;8.334;2023-07-24T13:32:25;6.03;;;2.85;;
19059;SDS011;9663;48.996;8.334;2023-07-24T13:34:50;5.15;;;2.85;;
19059;SDS011;9663;48.996;8.334;2023-07-24T13:37:16;4.43;;;2.50;;
19059;SDS011;9663;48.996;8.334;2023-07-24T13:39:42;4.82;;;2.78;;
19059;SDS011;9663;48.996;8.334;2023-07-24T13:42:07;5.00;;;2.72;;
19059;SDS011;9663;48.996;8.334;2023-07-24T13:44:33;5.13;;;2.90;;
19059;SDS011;9663;48.996;8.334;2023-07-24T13:46:59;4.53;;;2.60;;
19059;SDS011;9663;48.996;8.334;2023-07-24T13:49:24;4.90;;;2.78;;
19059;SDS011;9663;48.996;8.334;2023-07-24T13:51:50;5.18;;;3.00;;
19059;SDS011;9663;48.996;8.334;2023-07-24T13:54:16;4.95;;;2.85;;
19059;SDS011;9663;48.996;8.334;2023-07-24T13:56:41;5.28;;;2.90;;
19059;SDS011;9663;48.996;8.334;2023-07-24T13:59:07;5.63;;;2.75;;
19059;SDS011;9663;48.996;8.334;2023-07-24T14:01:33;5.22;;;2.83;;
19059;SDS011;9663;48.996;8.334;2023-07-24T14:03:59;4.70;;;2.83;;
19059;SDS011;9663;48.996;8.334;2023-07-24T14:06:25;4.50;;;2.50;;
19059;SDS011;9663;48.996;8.334;2023-07-24T14:08:51;4.63;;;2.42;;
19059;SDS011;9663;48.996;8.334;2023-07-24T14:11:16;5.50;;;2.97;;
19059;SDS011;9663;48.996;8.334;2023-07-24T14:13:42;5.95;;;2.75;;
19059;SDS011;9663;48.996;8.334;2023-07-24T14:16:10;5.22;;;2.97;;
19059;SDS011;9663;48.996;8.334;2023-07-24T14:18:35;5.65;;;3.15;;
19059;SDS011;9663;48.996;8.334;2023-07-24T14:21:01;5.55;;;3.08;;
19059;SDS011;9663;48.996;8.334;2023-07-24T14:23:27;4.85;;;2.60;;
19059;SDS011;9663;48.996;8.334;2023-07-24T14:25:52;5.18;;;2.90;;
19059;SDS011;9663;48.996;8.334;2023-07-24T14:28:18;6.22;;;2.78;;
19059;SDS011;9663;48.996;8.334;2023-07-24T14:30:44;4.90;;;2.67;;
19059;SDS011;9663;48.996;8.334;2023-07-24T14:33:09;5.05;;;2.72;;
19059;SDS011;9663;48.996;8.334;2023-07-24T14:35:35;5.13;;;2.42;;
19059;SDS011;9663;48.996;8.334;2023-07-24T14:38:01;5.75;;;2.47;;
19059;SDS011;9663;48.996;8.334;2023-07-24T14:40:27;4.93;;;2.60;;
19059;SDS011;9663;48.996;8.334;2023-07-24T14:42:53;5.10;;;2.67;;
19059;SDS011;9663;48.996;8.334;2023-07-24T14:45:18;4.88;;;2.50;;
19059;SDS011;9663;48.996;8.334;2023-07-24T14:47:44;4.65;;;2.10;;
19059;SDS011;9663;48.996;8.334;2023-07-24T14:50:10;4.50;;;2.22;;
19059;SDS011;9663;48.996;8.334;2023-07-24T14:52:35;5.55;;;2.30;;
19059;SDS011;9663;48.996;8.334;2023-07-24T14:55:02;5.10;;;2.60;;
19059;SDS011;9663;48.996;8.334;2023-07-24T14:57:29;5.25;;;2.60;;
19059;SDS011;9663;48.996;8.334;2023-07-24T14:59:55;4.57;;;2.15;;
19059;SDS011;9663;48.996;8.334;2023-07-24T15:02:21;4.63;;;2.40;;
19059;SDS011;9663;48.996;8.334;2023-07-24T15:04:47;8.98;;;2.45;;
19059;SDS011;9663;48.996;8.334;2023-07-24T15:07:13;4.28;;;1.90;;